createdAt,value
2023-03-10T00:01:30.038Z,12.27
2023-03-10T00:04:00.706Z,11.02
2023-03-10T00:06:33.358Z,6.97
2023-03-10T00:09:00.958Z,9.40
2023-03-10T00:11:28.309Z,8.63
2023-03-10T00:13:55.303Z,8.40
2023-03-10T00:16:29.069Z,7.45
2023-03-10T00:18:56.393Z,5.45
2023-03-10T00:21:27.620Z,9.00
2023-03-10T00:23:55.007Z,6.72
2023-03-10T00:26:24.028Z,8.30
2023-03-10T00:28:51.323Z,10.48
2023-03-10T00:31:22.461Z,8.43
2023-03-10T00:33:50.533Z,8.77
2023-03-10T00:36:25.367Z,11.90
2023-03-10T00:38:55.970Z,7.07
2023-03-10T00:41:26.819Z,7.20
2023-03-10T00:43:54.121Z,6.25
2023-03-10T00:46:21.394Z,5.63
2023-03-10T00:48:48.553Z,8.10
2023-03-10T00:51:16.520Z,6.53
2023-03-10T00:53:44.396Z,7.35
2023-03-10T00:56:21.095Z,6.03
2023-03-10T00:58:56.469Z,10.73
2023-03-10T01:01:34.037Z,1.75
2023-03-10T01:04:06.282Z,2.65
2023-03-10T01:06:50.367Z,0.50
2023-03-10T01:09:19.118Z,1.30
2023-03-10T01:11:46.098Z,0.40
2023-03-10T01:14:16.292Z,1.83
2023-03-10T01:16:43.648Z,1.98
2023-03-10T01:19:13.217Z,0.95
2023-03-10T01:21:41.989Z,1.45
2023-03-10T01:24:16.176Z,0.70
2023-03-10T01:26:43.495Z,2.67
2023-03-10T01:29:12.905Z,1.55
2023-03-10T01:31:41.944Z,1.13
2023-03-10T01:34:14.264Z,1.30
2023-03-10T01:36:42.393Z,1.10
2023-03-10T01:39:09.822Z,1.67
2023-03-10T01:41:41.760Z,2.30
2023-03-10T01:44:22.510Z,1.40
2023-03-10T01:46:56.111Z,2.22
2023-03-10T01:49:40.136Z,2.13
2023-03-10T01:52:18.876Z,4.20
2023-03-10T01:55:15.156Z,2.70
2023-03-10T01:57:54.229Z,1.02
2023-03-10T02:00:33.180Z,0.85
2023-03-10T02:03:22.059Z,0.70
2023-03-10T02:06:05.083Z,2.67
2023-03-10T02:08:41.814Z,1.15
2023-03-10T02:11:13.475Z,0.57
2023-03-10T02:13:46.456Z,0.80
2023-03-10T02:16:34.491Z,1.80
2023-03-10T02:19:08.559Z,1.77
2023-03-10T02:22:17.308Z,3.03
2023-03-10T02:25:31.004Z,3.53
2023-03-10T02:28:02.634Z,1.50
2023-03-10T02:30:43.921Z,1.88
2023-03-10T02:33:42.614Z,1.67
2023-03-10T02:36:23.852Z,2.45
2023-03-10T02:38:51.961Z,3.28
2023-03-10T02:41:38.813Z,2.88
2023-03-10T02:44:13.755Z,8.27
2023-03-10T02:46:41.342Z,9.02
2023-03-10T02:49:12.904Z,10.65
2023-03-10T02:51:46.857Z,10.77
2023-03-10T02:54:29.087Z,14.20
2023-03-10T02:56:58.147Z,13.15
2023-03-10T02:59:25.615Z,13.40
2023-03-10T03:01:54.131Z,13.60
2023-03-10T03:04:21.211Z,13.15
2023-03-10T03:06:48.846Z,13.55
2023-03-10T03:09:16.065Z,17.45
2023-03-10T03:11:47.941Z,18.23
2023-03-10T03:14:19.401Z,12.00
2023-03-10T03:16:49.464Z,6.43
2023-03-10T03:19:16.642Z,8.68
2023-03-10T03:21:50.168Z,4.85
2023-03-10T03:24:27.411Z,4.20
2023-03-10T03:26:54.412Z,5.32
2023-03-10T03:29:25.222Z,6.25
2023-03-10T03:31:53.723Z,6.35
2023-03-10T03:34:27.519Z,9.20
2023-03-10T03:57:08.344Z,11.98
2023-03-10T03:59:39.326Z,20.50
2023-03-10T04:02:06.678Z,12.85
2023-03-10T04:04:34.264Z,12.25
2023-03-10T04:07:03.145Z,17.42
2023-03-10T04:09:30.942Z,7.07
2023-03-10T04:11:58.079Z,6.28
2023-03-10T04:14:26.933Z,6.30
2023-03-10T04:16:55.736Z,5.63
2023-03-10T04:19:23.225Z,8.02
2023-03-10T04:21:55.493Z,6.57
2023-03-10T04:24:23.970Z,4.50
2023-03-10T04:26:54.182Z,4.93
2023-03-10T04:29:24.506Z,5.05
2023-03-10T04:32:05.135Z,5.18
2023-03-10T04:34:37.449Z,7.82
2023-03-10T04:37:05.095Z,4.95
2023-03-10T04:39:33.133Z,10.05
2023-03-10T04:42:01.016Z,5.63
2023-03-10T04:44:31.357Z,7.72
2023-03-10T04:47:02.635Z,7.50
2023-03-10T04:49:32.303Z,9.55
2023-03-10T04:52:00.788Z,9.90
2023-03-10T04:54:28.616Z,10.88
2023-03-10T04:56:56.954Z,5.80
2023-03-10T04:59:24.570Z,8.02
2023-03-10T05:01:54.774Z,5.93
2023-03-10T05:04:23.415Z,9.63
2023-03-10T05:06:53.391Z,8.15
2023-03-10T05:09:29.782Z,7.30
2023-03-10T05:11:57.372Z,4.32
2023-03-10T05:14:25.918Z,5.45
2023-03-10T05:16:54.085Z,6.55
2023-03-10T05:19:24.565Z,4.18
2023-03-10T05:21:54.118Z,6.38
2023-03-10T05:24:23.993Z,6.00
2023-03-10T05:26:56.634Z,4.70
2023-03-10T05:29:25.954Z,6.60
2023-03-10T05:32:00.148Z,3.28
2023-03-10T05:34:40.119Z,5.65
2023-03-10T05:37:09.407Z,4.55
2023-03-10T05:39:37.484Z,5.30
2023-03-10T05:42:16.308Z,6.45
2023-03-10T05:44:45.478Z,5.80
2023-03-10T05:47:14.924Z,7.53
2023-03-10T05:49:43.551Z,6.63
2023-03-10T05:52:11.970Z,5.95
2023-03-10T05:54:40.886Z,4.40
2023-03-10T05:57:09.104Z,7.80
2023-03-10T05:59:52.082Z,5.85
2023-03-10T06:02:43.811Z,9.05
2023-03-10T06:05:13.966Z,11.10
2023-03-10T06:07:43.450Z,8.70
2023-03-10T06:10:12.921Z,7.57
2023-03-10T06:12:41.342Z,7.90
2023-03-10T06:15:11.715Z,9.15
2023-03-10T06:17:40.141Z,9.77
2023-03-10T06:20:12.674Z,10.40
2023-03-10T06:22:48.361Z,12.35
2023-03-10T06:25:21.367Z,7.72
2023-03-10T06:27:49.169Z,8.77
2023-03-10T06:30:16.977Z,5.82
2023-03-10T06:32:44.021Z,9.73
2023-03-10T06:35:14.143Z,6.85
2023-03-10T06:37:42.587Z,9.23
2023-03-10T06:40:13.504Z,6.22
2023-03-10T06:42:41.420Z,6.28
2023-03-10T06:45:11.078Z,8.63
2023-03-10T06:47:38.046Z,13.38
2023-03-10T06:50:08.092Z,8.35
2023-03-10T06:52:35.598Z,9.20
2023-03-10T06:55:03.183Z,13.95
2023-03-10T06:57:30.407Z,12.02
2023-03-10T07:00:22.074Z,13.32
2023-03-10T07:02:51.485Z,14.50
2023-03-10T07:05:18.568Z,9.98
2023-03-10T07:07:45.724Z,8.55
2023-03-10T07:10:13.017Z,10.02
2023-03-10T07:12:40.080Z,8.75
2023-03-10T07:15:07.970Z,7.82
2023-03-10T07:17:34.902Z,7.68
2023-03-10T07:20:02.411Z,7.88
2023-03-10T07:22:29.393Z,10.40
2023-03-10T07:24:56.765Z,5.80
2023-03-10T07:27:24.009Z,9.55
2023-03-10T07:29:50.976Z,7.65
2023-03-10T07:32:17.906Z,9.15
2023-03-10T07:34:50.369Z,11.68
2023-03-10T07:37:20.665Z,10.23
2023-03-10T07:40:00.234Z,8.38
2023-03-10T07:42:27.138Z,6.05
2023-03-10T07:44:53.936Z,9.80
2023-03-10T07:47:20.822Z,5.97
2023-03-10T07:49:47.863Z,9.30
2023-03-10T07:52:18.149Z,6.78
2023-03-10T07:54:45.324Z,8.70
2023-03-10T07:57:14.385Z,10.75
2023-03-10T07:59:42.516Z,8.18
2023-03-10T08:02:13.602Z,10.48
2023-03-10T08:04:41.366Z,8.10
2023-03-10T08:07:09.208Z,7.95
2023-03-10T08:09:36.935Z,7.32
2023-03-10T08:12:04.914Z,8.07
2023-03-10T08:14:32.850Z,7.10
2023-03-10T08:17:01.334Z,7.82
2023-03-10T08:19:28.820Z,10.38
2023-03-10T08:22:02.065Z,10.68
2023-03-10T08:24:29.118Z,15.70
2023-03-10T08:26:56.064Z,13.40
2023-03-10T08:29:25.994Z,6.97
2023-03-10T08:31:53.067Z,11.18
2023-03-10T08:34:20.611Z,4.75
2023-03-10T08:36:47.594Z,8.13
2023-03-10T08:39:15.184Z,10.57
2023-03-10T08:41:49.253Z,9.15
2023-03-10T08:44:18.894Z,8.57
2023-03-10T08:46:49.544Z,10.85
2023-03-10T08:49:19.675Z,11.98
2023-03-10T08:51:48.756Z,14.02
2023-03-10T08:54:19.007Z,9.90
2023-03-10T08:56:46.453Z,13.35
2023-03-10T08:59:13.584Z,8.88
2023-03-10T09:01:40.814Z,10.60
2023-03-10T09:04:10.545Z,11.20
2023-03-10T09:06:38.704Z,10.38
2023-03-10T09:09:10.125Z,7.43
2023-03-10T09:11:40.407Z,7.75
2023-03-10T09:14:10.046Z,11.32
2023-03-10T09:16:38.741Z,11.82
2023-03-10T09:19:07.795Z,12.65
2023-03-10T09:22:23.028Z,7.47
2023-03-10T09:24:48.537Z,7.35
2023-03-10T09:27:15.413Z,12.05
2023-03-10T09:29:43.658Z,15.68
2023-03-10T09:32:13.663Z,10.30
2023-03-10T09:34:41.631Z,6.78
2023-03-10T09:37:08.768Z,12.00
2023-03-10T09:39:35.746Z,14.85
2023-03-10T09:42:35.792Z,9.60
2023-03-10T09:45:56.049Z,8.25
2023-03-10T09:48:51.156Z,10.23
2023-03-10T09:51:28.844Z,13.93
2023-03-10T09:54:51.669Z,8.65
2023-03-10T09:57:22.839Z,13.25
2023-03-10T09:59:56.755Z,10.93
2023-03-10T10:02:32.094Z,9.70
2023-03-10T10:05:06.810Z,9.73
2023-03-10T10:07:51.353Z,13.07
2023-03-10T10:10:36.510Z,7.70
2023-03-10T10:13:15.164Z,11.07
2023-03-10T10:16:18.312Z,8.15
2023-03-10T10:19:05.478Z,10.88
2023-03-10T10:21:51.545Z,10.25
2023-03-10T10:24:23.197Z,7.63
2023-03-10T10:26:50.165Z,9.57
2023-03-10T10:29:25.630Z,7.50
2023-03-10T10:32:16.443Z,8.88
2023-03-10T10:34:46.808Z,10.57
2023-03-10T10:37:43.365Z,14.05
2023-03-10T10:40:26.022Z,12.00
2023-03-10T10:42:55.939Z,9.48
2023-03-10T10:45:39.837Z,11.73
2023-03-10T10:48:36.747Z,8.45
2023-03-10T10:51:05.878Z,9.85
2023-03-10T10:53:34.622Z,11.02
2023-03-10T10:56:16.233Z,9.48
2023-03-10T10:59:06.622Z,5.57
2023-03-10T11:01:56.154Z,8.95
2023-03-10T11:04:26.035Z,8.70
2023-03-10T11:07:08.100Z,8.27
2023-03-10T11:09:35.128Z,3.67
2023-03-10T11:12:08.408Z,7.57
2023-03-10T11:14:57.715Z,9.82
2023-03-10T11:17:56.114Z,6.45
2023-03-10T11:20:50.529Z,12.27
2023-03-10T11:23:34.643Z,9.82
2023-03-10T11:26:11.307Z,5.57
2023-03-10T11:28:56.866Z,9.80
2023-03-10T11:31:40.189Z,5.45
2023-03-10T11:34:06.994Z,7.88
2023-03-10T11:36:55.370Z,8.55
2023-03-10T11:40:19.781Z,5.75
2023-03-10T11:43:36.856Z,6.97
2023-03-10T11:46:29.663Z,5.95
2023-03-10T11:49:24.278Z,6.97
2023-03-10T11:51:59.576Z,4.93
2023-03-10T11:54:33.107Z,4.38
2023-03-10T11:57:04.358Z,5.18
2023-03-10T11:59:36.158Z,4.85
2023-03-10T12:02:20.078Z,5.70
2023-03-10T12:05:01.357Z,6.78
2023-03-10T12:07:40.684Z,9.00
2023-03-10T12:10:16.973Z,6.45
2023-03-10T12:12:48.330Z,5.85
2023-03-10T12:15:30.248Z,6.70
2023-03-10T12:17:57.588Z,6.38
2023-03-10T12:20:33.507Z,6.00
2023-03-10T12:23:24.873Z,7.47
2023-03-10T12:25:51.739Z,5.30
2023-03-10T12:28:29.369Z,6.72
2023-03-10T12:31:10.618Z,4.38
2023-03-10T12:33:45.451Z,5.15
2023-03-10T12:36:35.356Z,3.78
2023-03-10T12:39:28.386Z,6.18
2023-03-10T12:42:30.022Z,5.18
2023-03-10T12:45:05.616Z,6.18
2023-03-10T12:47:52.615Z,4.22
2023-03-10T12:50:35.819Z,2.17
2023-03-10T12:53:11.275Z,4.63
2023-03-10T12:55:42.087Z,4.55
2023-03-10T12:58:23.574Z,8.38
2023-03-10T13:01:02.249Z,4.30
2023-03-10T13:03:50.989Z,2.95
2023-03-10T13:06:30.097Z,4.10
2023-03-10T13:09:21.177Z,5.40
2023-03-10T13:12:00.520Z,3.90
2023-03-10T13:14:40.910Z,5.20
2023-03-10T13:17:27.473Z,8.45
2023-03-10T13:20:20.857Z,3.90
2023-03-10T13:23:00.126Z,4.45
2023-03-10T13:25:28.457Z,3.08
2023-03-10T13:27:57.467Z,2.55
2023-03-10T13:30:27.859Z,3.22
2023-03-10T13:33:02.387Z,4.90
2023-03-10T13:35:38.811Z,6.50
2023-03-10T13:38:13.104Z,4.50
2023-03-10T13:40:49.265Z,2.70
2023-03-10T13:43:35.083Z,7.47
2023-03-10T13:46:09.385Z,4.05
2023-03-10T13:48:38.947Z,3.85
2023-03-10T13:51:39.020Z,8.48
2023-03-10T13:54:38.453Z,8.80
2023-03-10T13:57:31.466Z,5.35
2023-03-10T14:00:05.854Z,6.15
2023-03-10T14:02:45.770Z,4.03
2023-03-10T14:05:47.448Z,4.50
2023-03-10T14:08:32.407Z,7.72
2023-03-10T14:11:43.993Z,8.00
2023-03-10T14:14:30.017Z,10.32
2023-03-10T14:17:11.449Z,5.82
2023-03-10T14:19:43.007Z,8.68
2023-03-10T14:22:43.034Z,7.38
2023-03-10T14:25:25.795Z,9.40
2023-03-10T14:28:06.629Z,8.50
2023-03-10T14:30:45.202Z,7.25
2023-03-10T14:33:16.251Z,9.02
2023-03-10T14:35:46.008Z,8.48
2023-03-10T14:38:16.439Z,5.00
2023-03-10T14:40:48.775Z,8.57
2023-03-10T14:43:21.244Z,6.53
2023-03-10T14:45:51.318Z,6.45
2023-03-10T14:48:25.376Z,6.55
2023-03-10T14:50:53.732Z,2.57
2023-03-10T14:53:25.045Z,3.83
2023-03-10T14:55:55.877Z,5.07
2023-03-10T14:58:33.143Z,1.98
2023-03-10T15:01:00.943Z,2.75
2023-03-10T15:03:28.079Z,9.88
2023-03-10T15:05:55.016Z,6.43
2023-03-10T15:08:21.984Z,5.20
2023-03-10T15:10:51.202Z,3.22
2023-03-10T15:13:24.635Z,7.95
2023-03-10T15:15:53.102Z,4.03
2023-03-10T15:18:34.892Z,7.80
2023-03-10T15:21:05.548Z,5.22
2023-03-10T15:23:47.538Z,8.45
2023-03-10T15:26:15.057Z,3.47
2023-03-10T15:28:47.622Z,5.80
2023-03-10T15:31:15.533Z,3.45
2023-03-10T15:33:47.830Z,9.05
2023-03-10T15:36:33.470Z,5.43
2023-03-10T15:39:01.209Z,2.33
2023-03-10T15:41:41.067Z,3.72
2023-03-10T15:47:30.974Z,1.55
2023-03-10T15:49:58.084Z,1.40
2023-03-10T15:52:24.880Z,0.90
2023-03-10T15:54:51.720Z,1.48
2023-03-10T15:57:18.620Z,1.15
2023-03-10T15:59:45.520Z,0.68
2023-03-10T16:02:12.906Z,0.88
2023-03-10T16:04:39.839Z,1.20
2023-03-10T16:07:07.550Z,0.80
2023-03-10T16:09:34.326Z,1.00
2023-03-10T16:12:02.974Z,1.15
2023-03-10T16:14:32.991Z,0.80
2023-03-10T16:17:00.334Z,1.42
2023-03-10T16:19:28.198Z,1.52
2023-03-10T16:21:55.323Z,2.15
2023-03-10T16:24:22.684Z,3.92
2023-03-10T16:26:49.516Z,2.95
2023-03-10T16:29:17.038Z,2.15
2023-03-10T16:31:43.976Z,1.90
2023-03-10T16:34:10.923Z,2.05
2023-03-10T16:36:37.821Z,2.20
2023-03-10T16:39:11.735Z,1.67
2023-03-10T16:41:38.945Z,2.17
2023-03-10T16:44:07.673Z,2.90
2023-03-10T16:46:34.810Z,3.00
2023-03-10T16:49:02.396Z,3.45
2023-03-10T16:51:42.402Z,3.15
2023-03-10T16:54:21.882Z,3.25
2023-03-10T16:56:59.049Z,3.78
2023-03-10T16:59:25.855Z,3.05
2023-03-10T17:01:53.127Z,3.53
2023-03-10T17:04:20.498Z,4.75
2023-03-10T17:06:47.790Z,5.22
2023-03-10T17:09:16.071Z,4.35
2023-03-10T17:11:51.933Z,5.20
2023-03-10T17:14:21.057Z,3.88
2023-03-10T17:16:48.307Z,3.90
2023-03-10T17:19:22.497Z,3.13
2023-03-10T17:21:52.107Z,6.00
2023-03-10T17:24:21.025Z,3.25
2023-03-10T17:26:48.008Z,4.18
2023-03-10T17:29:18.012Z,3.28
2023-03-10T17:31:49.008Z,2.58
2023-03-10T17:34:15.994Z,2.88
2023-03-10T17:36:43.743Z,5.45
2023-03-10T17:39:22.588Z,2.80
2023-03-10T17:41:49.870Z,4.40
2023-03-10T17:44:17.428Z,3.95
2023-03-10T17:46:45.307Z,3.05
2023-03-10T17:49:14.552Z,3.85
2023-03-10T17:51:44.122Z,3.30
2023-03-10T17:54:29.297Z,3.55
2023-03-10T17:59:22.929Z,5.28
2023-03-10T18:01:50.027Z,5.15
2023-03-10T18:04:17.168Z,3.85
2023-03-10T18:06:47.272Z,5.03
2023-03-10T18:09:15.155Z,3.83
2023-03-10T18:11:42.093Z,5.63
2023-03-10T18:14:09.206Z,3.80
2023-03-10T18:16:39.953Z,3.92
2023-03-10T18:19:10.467Z,4.15
2023-03-10T18:21:38.475Z,3.67
2023-03-10T18:24:06.462Z,4.70
2023-03-10T18:26:33.724Z,4.57
2023-03-10T18:29:02.621Z,4.30
2023-03-10T18:31:32.959Z,6.72
2023-03-10T18:34:01.185Z,4.00
2023-03-10T18:36:28.684Z,6.40
2023-03-10T18:38:56.366Z,5.25
2023-03-10T18:41:29.972Z,5.80
2023-03-10T18:43:57.098Z,6.25
2023-03-10T18:46:27.013Z,4.72
2023-03-10T18:48:55.934Z,4.68
2023-03-10T18:51:26.303Z,5.45
2023-03-10T18:53:54.333Z,4.50
2023-03-10T18:56:22.367Z,7.15
2023-03-10T18:58:49.379Z,5.93
2023-03-10T19:01:22.457Z,3.90
2023-03-10T19:03:49.857Z,4.78
2023-03-10T19:06:16.858Z,3.47
2023-03-10T19:08:44.254Z,6.60
2023-03-10T19:11:11.595Z,4.03
2023-03-10T19:13:44.123Z,4.72
2023-03-10T19:16:11.945Z,3.22
2023-03-10T19:18:39.709Z,4.00
2023-03-10T19:21:06.933Z,4.28
2023-03-10T19:23:34.969Z,3.88
2023-03-10T19:26:03.150Z,3.75
2023-03-10T19:28:30.579Z,3.78
2023-03-10T19:30:57.594Z,3.50
2023-03-10T19:33:27.205Z,3.33
2023-03-10T19:36:03.492Z,2.85
2023-03-10T19:38:35.749Z,4.65
2023-03-10T19:41:05.256Z,4.30
2023-03-10T19:43:32.868Z,2.60
2023-03-10T19:46:08.410Z,2.70
2023-03-10T19:48:35.644Z,1.85
2023-03-10T19:51:02.748Z,4.28
2023-03-10T19:53:34.650Z,2.85
2023-03-10T19:56:07.434Z,3.15
2023-03-10T19:58:34.456Z,1.92
2023-03-10T20:01:01.531Z,2.00
2023-03-10T20:03:32.018Z,4.53
2023-03-10T20:06:01.523Z,5.15
2023-03-10T20:08:28.762Z,4.63
2023-03-10T20:11:03.220Z,4.82
2023-03-10T20:13:33.232Z,5.05
2023-03-10T20:16:03.447Z,7.63
2023-03-10T20:18:40.501Z,5.45
2023-03-10T20:21:15.012Z,7.85
2023-03-10T20:23:50.252Z,4.85
2023-03-10T20:26:19.212Z,3.22
2023-03-10T20:28:48.683Z,6.07
2023-03-10T20:31:22.957Z,2.78
2023-03-10T20:33:52.913Z,2.50
2023-03-10T20:36:23.045Z,3.15
2023-03-10T20:38:54.569Z,5.05
2023-03-10T20:41:22.705Z,4.63
2023-03-10T20:43:55.112Z,5.40
2023-03-10T20:46:24.919Z,5.82
2023-03-10T20:48:55.544Z,2.88
2023-03-10T20:51:23.419Z,3.17
2023-03-10T20:53:51.902Z,4.70
2023-03-10T20:56:19.091Z,3.28
2023-03-10T20:58:47.297Z,5.05
2023-03-10T21:01:20.987Z,4.05
2023-03-10T21:03:48.322Z,3.75
2023-03-10T21:06:15.887Z,8.40
2023-03-10T21:08:43.263Z,2.92
2023-03-10T21:11:10.415Z,4.38
2023-03-10T21:13:39.409Z,4.05
2023-03-10T21:16:09.558Z,3.17
2023-03-10T21:18:37.416Z,3.83
2023-03-10T21:21:07.486Z,2.78
2023-03-10T21:23:41.533Z,3.53
2023-03-10T21:26:20.510Z,3.25
2023-03-10T21:28:51.352Z,3.35
2023-03-10T21:31:20.803Z,5.25
2023-03-10T21:33:51.897Z,3.20
2023-03-10T21:36:29.688Z,5.65
2023-03-10T21:39:09.088Z,3.55
2023-03-10T21:41:45.934Z,3.92
2023-03-10T21:44:16.166Z,6.38
2023-03-10T21:46:51.214Z,3.58
2023-03-10T21:49:21.032Z,5.28
2023-03-10T21:51:49.076Z,4.85
2023-03-10T21:54:16.123Z,5.22
2023-03-10T21:56:55.236Z,4.85
2023-03-10T21:59:39.660Z,3.88
2023-03-10T22:02:09.120Z,3.85
2023-03-10T22:04:36.988Z,4.15
2023-03-10T22:07:04.029Z,3.65
2023-03-10T22:09:31.942Z,4.50
2023-03-10T22:11:59.272Z,3.15
2023-03-10T22:14:27.438Z,2.72
2023-03-10T22:16:55.830Z,4.93
2023-03-10T22:19:23.353Z,2.65
2023-03-10T22:21:51.456Z,2.45
2023-03-10T22:24:19.826Z,3.75
2023-03-10T22:26:51.278Z,3.63
2023-03-10T22:29:20.799Z,2.85
2023-03-10T22:31:51.822Z,4.72
2023-03-10T22:34:23.947Z,4.68
2023-03-10T22:36:51.324Z,7.20
2023-03-10T22:39:18.545Z,6.90
2023-03-10T22:41:45.988Z,2.60
2023-03-10T22:44:13.891Z,6.68
2023-03-10T22:46:44.892Z,3.13
2023-03-10T22:49:12.699Z,4.00
2023-03-10T22:51:40.620Z,5.55
2023-03-10T22:54:08.741Z,1.88
2023-03-10T22:56:36.236Z,4.07
2023-03-10T22:59:03.946Z,4.30
2023-03-10T23:01:31.244Z,2.53
2023-03-10T23:03:59.163Z,4.72
2023-03-10T23:06:29.345Z,2.17
2023-03-10T23:08:57.602Z,3.28
2023-03-10T23:11:24.797Z,3.20
2023-03-10T23:13:52.235Z,2.28
2023-03-10T23:16:19.850Z,1.52
2023-03-10T23:18:47.269Z,2.08
2023-03-10T23:21:14.894Z,4.32
2023-03-10T23:23:43.954Z,1.92
2023-03-10T23:26:11.682Z,5.60
2023-03-10T23:28:38.972Z,2.55
2023-03-10T23:31:07.737Z,5.85
2023-03-10T23:33:37.471Z,4.88
2023-03-10T23:36:06.413Z,1.65
2023-03-10T23:38:35.962Z,2.03
2023-03-10T23:41:03.162Z,5.25
2023-03-10T23:43:31.735Z,4.93
2023-03-10T23:46:02.536Z,1.88
2023-03-10T23:48:29.870Z,2.80
2023-03-10T23:50:57.342Z,2.67
2023-03-10T23:53:25.033Z,3.28
2023-03-10T23:56:01.420Z,4.43
2023-03-10T23:58:40.522Z,4.57
